createdAt,value
2023-04-08T00:00:28.801Z,7.03
2023-04-08T00:02:55.681Z,7.05
2023-04-08T00:05:22.561Z,8.20
2023-04-08T00:07:49.288Z,8.68
2023-04-08T00:10:16.307Z,8.68
2023-04-08T00:12:43.010Z,9.18
2023-04-08T00:15:10.090Z,7.60
2023-04-08T00:17:36.852Z,7.18
2023-04-08T00:20:04.424Z,11.65
2023-04-08T00:22:31.180Z,7.35
2023-04-08T00:24:58.501Z,6.95
2023-04-08T00:27:25.771Z,8.55
2023-04-08T00:29:52.511Z,7.75
2023-04-08T00:32:19.237Z,7.85
2023-04-08T00:34:45.939Z,8.50
2023-04-08T00:37:12.646Z,10.20
2023-04-08T00:39:39.421Z,13.05
2023-04-08T00:42:06.621Z,8.88
2023-04-08T00:44:33.475Z,8.43
2023-04-08T00:47:00.387Z,10.05
2023-04-08T00:49:27.294Z,10.57
2023-04-08T00:51:55.673Z,8.52
2023-04-08T00:54:22.660Z,13.10
2023-04-08T00:56:49.422Z,9.18
2023-04-08T00:59:18.715Z,8.60
2023-04-08T01:02:00.296Z,10.48
2023-04-08T01:04:50.609Z,8.48
2023-04-08T01:07:31.813Z,9.48
2023-04-08T01:10:16.121Z,8.80
2023-04-08T01:12:49.255Z,9.50
2023-04-08T01:15:16.298Z,10.07
2023-04-08T01:17:44.453Z,9.85
2023-04-08T01:20:13.190Z,8.60
2023-04-08T01:23:01.284Z,11.20
2023-04-08T01:25:32.430Z,8.48
2023-04-08T01:28:11.358Z,8.45
2023-04-08T01:30:42.551Z,8.35
2023-04-08T01:33:13.387Z,10.30
2023-04-08T01:35:40.393Z,8.80
2023-04-08T01:38:08.775Z,9.30
2023-04-08T01:40:38.881Z,8.80
2023-04-08T01:43:08.606Z,10.20
2023-04-08T01:45:35.592Z,9.10
2023-04-08T01:48:03.588Z,6.80
2023-04-08T01:50:31.713Z,9.55
2023-04-08T01:53:00.459Z,8.70
2023-04-08T01:55:28.279Z,9.98
2023-04-08T01:57:59.642Z,9.48
2023-04-08T02:00:29.758Z,8.80
2023-04-08T02:02:58.920Z,8.60
2023-04-08T02:05:25.923Z,8.18
2023-04-08T02:07:52.650Z,9.05
2023-04-08T02:10:20.381Z,9.75
2023-04-08T02:12:47.462Z,9.20
2023-04-08T02:15:14.941Z,9.40
2023-04-08T02:17:47.689Z,11.60
2023-04-08T02:20:19.121Z,10.95
2023-04-08T02:23:02.322Z,8.60
2023-04-08T02:25:30.430Z,12.20
2023-04-08T02:27:58.454Z,9.80
2023-04-08T02:30:27.507Z,7.57
2023-04-08T02:32:55.224Z,12.60
2023-04-08T02:35:23.649Z,9.25
2023-04-08T02:37:51.045Z,11.38
2023-04-08T02:40:32.272Z,11.35
2023-04-08T02:43:00.336Z,9.85
2023-04-08T02:45:42.130Z,10.55
2023-04-08T02:48:10.185Z,8.60
2023-04-08T02:50:37.290Z,10.80
2023-04-08T02:53:04.358Z,8.77
2023-04-08T02:55:32.965Z,8.30
2023-04-08T02:57:59.900Z,11.93
2023-04-08T03:00:27.177Z,9.38
2023-04-08T03:02:54.203Z,9.15
2023-04-08T03:05:21.673Z,9.95
2023-04-08T03:07:48.500Z,10.35
2023-04-08T03:10:16.075Z,12.18
2023-04-08T03:12:42.784Z,8.75
2023-04-08T03:15:09.922Z,12.02
2023-04-08T03:17:36.903Z,11.20
2023-04-08T03:20:06.973Z,11.52
2023-04-08T03:22:34.663Z,14.88
2023-04-08T03:25:01.495Z,13.30
2023-04-08T03:27:28.468Z,11.80
2023-04-08T03:29:55.318Z,12.50
2023-04-08T03:32:22.202Z,11.13
2023-04-08T03:34:51.194Z,13.73
2023-04-08T03:37:18.619Z,12.70
2023-04-08T03:39:46.346Z,14.55
2023-04-08T03:42:13.149Z,14.02
2023-04-08T03:44:39.847Z,13.45
2023-04-08T03:47:06.512Z,13.23
2023-04-08T03:49:33.175Z,15.88
2023-04-08T03:52:00.192Z,13.63
2023-04-08T03:54:27.010Z,13.55
2023-04-08T03:56:53.814Z,13.10
2023-04-08T03:59:20.604Z,14.98
2023-04-08T04:01:47.635Z,16.48
2023-04-08T04:04:14.858Z,16.38
2023-04-08T04:06:41.793Z,14.38
2023-04-08T04:09:08.547Z,14.00
2023-04-08T04:11:35.907Z,16.02
2023-04-08T04:14:03.114Z,17.38
2023-04-08T04:16:32.706Z,16.30
2023-04-08T04:18:59.921Z,15.50
2023-04-08T04:21:27.162Z,12.93
2023-04-08T04:23:54.021Z,15.43
2023-04-08T04:26:21.047Z,15.73
2023-04-08T04:28:47.876Z,14.68
2023-04-08T04:31:27.901Z,16.20
2023-04-08T04:33:54.948Z,16.48
2023-04-08T04:36:21.716Z,16.48
2023-04-08T04:38:50.847Z,19.90
2023-04-08T04:41:18.067Z,17.35
2023-04-08T04:43:44.891Z,17.65
2023-04-08T04:46:11.661Z,20.17
2023-04-08T04:48:38.454Z,16.13
2023-04-08T04:51:07.358Z,19.02
2023-04-08T04:53:34.196Z,19.77
2023-04-08T04:56:03.996Z,22.55
2023-04-08T04:58:30.999Z,17.77
2023-04-08T05:00:57.855Z,18.85
2023-04-08T05:03:24.648Z,19.98
2023-04-08T05:05:55.086Z,17.65
2023-04-08T05:08:22.287Z,21.25
2023-04-08T05:10:50.665Z,16.73
2023-04-08T05:13:18.428Z,20.00
2023-04-08T05:15:47.945Z,20.35
2023-04-08T05:18:15.066Z,20.88
2023-04-08T05:20:44.938Z,19.67
2023-04-08T05:23:11.681Z,18.88
2023-04-08T05:25:38.631Z,23.17
2023-04-08T05:28:05.873Z,19.15
2023-04-08T05:30:32.592Z,18.73
2023-04-08T05:33:00.790Z,20.38
2023-04-08T05:35:28.439Z,23.58
2023-04-08T05:37:55.417Z,17.38
2023-04-08T05:40:22.252Z,20.58
2023-04-08T05:42:48.988Z,20.20
2023-04-08T05:45:16.175Z,21.27
2023-04-08T05:47:43.024Z,21.58
2023-04-08T05:50:11.178Z,24.45
2023-04-08T05:52:38.020Z,21.50
2023-04-08T05:55:06.037Z,19.30
2023-04-08T05:57:32.693Z,24.35
2023-04-08T05:59:59.337Z,25.52
2023-04-08T06:02:26.262Z,24.17
2023-04-08T06:04:53.231Z,23.05
2023-04-08T06:07:19.953Z,27.58
2023-04-08T06:09:46.702Z,24.48
2023-04-08T06:12:13.501Z,25.45
2023-04-08T06:14:40.564Z,27.30
2023-04-08T06:17:07.386Z,25.27
2023-04-08T06:19:34.560Z,27.88
2023-04-08T06:22:02.615Z,28.95
2023-04-08T06:24:29.688Z,28.33
2023-04-08T06:26:56.666Z,27.42
2023-04-08T06:29:23.645Z,29.65
2023-04-08T06:31:51.098Z,29.52
2023-04-08T06:34:18.012Z,31.23
2023-04-08T06:36:44.739Z,32.85
2023-04-08T06:39:11.550Z,32.80
2023-04-08T06:41:38.333Z,35.20
2023-04-08T06:44:19.241Z,32.03
2023-04-08T06:46:49.230Z,35.13
2023-04-08T06:49:16.241Z,36.38
2023-04-08T06:51:43.019Z,34.35
2023-04-08T06:54:12.784Z,34.03
2023-04-08T06:56:39.504Z,32.35
2023-04-08T06:59:06.305Z,35.08
2023-04-08T07:01:33.104Z,35.72
2023-04-08T07:04:02.207Z,39.65
2023-04-08T07:06:29.082Z,37.25
2023-04-08T07:08:56.342Z,39.97
2023-04-08T07:11:23.137Z,36.47
2023-04-08T07:13:49.893Z,41.05
2023-04-08T07:16:16.642Z,41.63
2023-04-08T07:18:43.952Z,42.35
2023-04-08T07:21:10.707Z,45.20
2023-04-08T07:23:37.499Z,38.50
2023-04-08T07:26:07.150Z,41.05
2023-04-08T07:28:33.926Z,37.72
2023-04-08T07:31:16.668Z,41.47
2023-04-08T07:36:12.843Z,34.42
2023-04-08T07:38:40.112Z,35.20
2023-04-08T07:41:07.301Z,33.72
2023-04-08T07:43:34.517Z,31.77
2023-04-08T07:46:05.060Z,35.67
2023-04-08T07:48:32.565Z,33.40
2023-04-08T07:51:09.981Z,29.85
2023-04-08T07:53:38.601Z,33.65
2023-04-08T07:56:12.161Z,31.52
2023-04-08T07:58:40.552Z,34.90
2023-04-08T08:01:23.456Z,35.50
2023-04-08T08:06:18.785Z,30.50
2023-04-08T08:08:45.790Z,30.60
2023-04-08T08:11:12.887Z,31.65
2023-04-08T08:13:39.580Z,34.42
2023-04-08T08:16:09.024Z,33.42
2023-04-08T08:18:36.390Z,32.55
2023-04-08T08:21:03.466Z,36.97
2023-04-08T08:23:30.387Z,33.78
2023-04-08T08:26:03.498Z,34.45
2023-04-08T08:28:30.221Z,32.17
2023-04-08T08:30:57.314Z,33.10
2023-04-08T08:33:25.295Z,35.70
2023-04-08T08:35:55.466Z,34.45
2023-04-08T08:38:22.188Z,32.85
2023-04-08T08:40:55.031Z,36.67
2023-04-08T08:43:22.703Z,33.13
2023-04-08T08:45:49.800Z,34.08
2023-04-08T08:48:17.346Z,33.20
2023-04-08T08:50:44.637Z,37.13
2023-04-08T08:53:11.552Z,41.85
2023-04-08T08:56:05.811Z,34.80
2023-04-08T08:58:27.933Z,35.75
2023-04-08T09:00:54.858Z,32.45
2023-04-08T09:03:29.522Z,31.95
2023-04-08T09:05:59.350Z,29.73
2023-04-08T09:08:29.117Z,30.08
2023-04-08T09:10:57.427Z,29.40
2023-04-08T09:13:24.818Z,27.52
2023-04-08T09:16:03.521Z,26.98
2023-04-08T09:18:30.968Z,24.02
2023-04-08T09:20:59.508Z,24.08
2023-04-08T09:23:42.389Z,26.75
2023-04-08T09:28:37.666Z,22.65
2023-04-08T09:31:24.188Z,27.65
2023-04-08T09:33:53.780Z,25.38
2023-04-08T09:36:20.883Z,21.17
2023-04-08T09:38:50.474Z,23.50
2023-04-08T09:41:18.598Z,22.45
2023-04-08T09:43:50.263Z,23.35
2023-04-08T09:46:25.068Z,24.38
2023-04-08T09:49:12.743Z,22.38
2023-04-08T09:51:53.341Z,21.40
2023-04-08T09:54:23.136Z,20.95
2023-04-08T09:56:58.480Z,19.38
2023-04-08T09:59:30.338Z,19.52
2023-04-08T10:02:01.280Z,23.27
2023-04-08T10:04:34.137Z,22.73
2023-04-08T10:07:04.875Z,19.73
2023-04-08T10:09:32.743Z,21.08
2023-04-08T10:11:59.553Z,20.42
2023-04-08T10:14:28.632Z,17.17
2023-04-08T10:17:36.039Z,18.90
2023-04-08T10:20:03.236Z,20.80
2023-04-08T10:22:29.904Z,19.30
2023-04-08T10:25:15.742Z,18.13
2023-04-08T10:27:44.138Z,17.35
2023-04-08T10:30:26.525Z,16.50
2023-04-08T10:32:57.487Z,15.82
2023-04-08T10:35:31.148Z,16.75
2023-04-08T10:38:01.294Z,18.50
2023-04-08T10:40:28.141Z,15.35
2023-04-08T10:42:56.433Z,14.95
2023-04-08T10:45:23.754Z,18.25
2023-04-08T10:47:50.747Z,14.70
2023-04-08T10:50:19.407Z,18.88
2023-04-08T10:52:54.321Z,12.55
2023-04-08T10:55:24.692Z,17.42
2023-04-08T10:57:51.937Z,15.23
2023-04-08T11:00:19.597Z,15.85
2023-04-08T11:02:46.417Z,15.50
2023-04-08T11:05:13.363Z,16.52
2023-04-08T11:07:41.721Z,14.30
2023-04-08T11:10:09.492Z,15.85
2023-04-08T11:12:37.388Z,16.75
2023-04-08T11:15:04.897Z,16.85
2023-04-08T11:17:34.856Z,15.98
2023-04-08T11:20:06.093Z,18.13
2023-04-08T11:22:34.534Z,16.52
2023-04-08T11:25:02.211Z,13.95
2023-04-08T11:27:29.506Z,15.98
2023-04-08T11:29:57.018Z,13.40
2023-04-08T11:32:26.313Z,15.23
2023-04-08T11:34:53.739Z,15.05
2023-04-08T11:37:21.090Z,13.05
2023-04-08T11:39:47.904Z,17.05
2023-04-08T11:42:27.753Z,16.25
2023-04-08T11:44:54.607Z,16.45
2023-04-08T11:47:21.876Z,15.63
2023-04-08T11:49:48.756Z,15.20
2023-04-08T11:52:15.618Z,13.43
2023-04-08T11:54:43.251Z,13.57
2023-04-08T11:57:10.491Z,15.40
2023-04-08T11:59:37.205Z,14.35
2023-04-08T12:02:07.066Z,15.95
2023-04-08T12:04:34.228Z,12.52
2023-04-08T12:07:01.072Z,15.18
2023-04-08T12:09:31.237Z,15.40
2023-04-08T12:11:58.241Z,15.35
2023-04-08T12:14:26.981Z,15.30
2023-04-08T12:16:55.069Z,16.95
2023-04-08T12:19:21.719Z,17.75
2023-04-08T12:21:48.395Z,13.57
2023-04-08T12:24:15.447Z,16.48
2023-04-08T12:26:42.166Z,16.63
2023-04-08T12:29:11.584Z,15.73
2023-04-08T12:31:38.319Z,16.67
2023-04-08T12:34:05.111Z,16.00
2023-04-08T12:36:31.978Z,15.73
2023-04-08T12:38:58.660Z,13.40
2023-04-08T12:41:25.416Z,14.43
2023-04-08T12:43:52.060Z,17.13
2023-04-08T12:46:21.634Z,15.80
2023-04-08T12:48:48.688Z,15.30
2023-04-08T12:51:16.321Z,18.27
2023-04-08T12:53:43.052Z,16.90
2023-04-08T12:56:10.433Z,16.25
2023-04-08T12:58:37.485Z,18.67
2023-04-08T13:01:04.200Z,18.02
2023-04-08T13:03:32.107Z,17.05
2023-04-08T13:05:59.153Z,17.52
2023-04-08T13:08:26.141Z,17.98
2023-04-08T13:10:52.926Z,19.80
2023-04-08T13:13:19.641Z,18.55
2023-04-08T13:15:47.149Z,17.33
2023-04-08T13:18:14.281Z,18.67
2023-04-08T13:20:41.025Z,18.73
2023-04-08T13:23:07.743Z,18.83
2023-04-08T13:25:34.437Z,20.60
2023-04-08T13:28:01.356Z,20.58
2023-04-08T13:30:28.034Z,17.23
2023-04-08T13:32:54.883Z,21.13
2023-04-08T13:35:21.599Z,21.00
2023-04-08T13:37:48.490Z,22.35
2023-04-08T13:40:15.314Z,24.08
2023-04-08T13:42:41.997Z,23.73
2023-04-08T13:45:09.048Z,23.00
2023-04-08T13:47:37.767Z,20.83
2023-04-08T13:50:06.171Z,22.92
2023-04-08T13:52:33.079Z,18.52
2023-04-08T13:55:00.072Z,22.48
2023-04-08T13:57:26.892Z,19.20
2023-04-08T13:59:53.658Z,23.50
2023-04-08T14:02:21.554Z,24.35
2023-04-08T14:04:49.495Z,26.60
2023-04-08T14:07:16.232Z,23.08
2023-04-08T14:09:42.906Z,23.52
2023-04-08T14:12:09.592Z,27.23
2023-04-08T14:14:36.423Z,22.48
2023-04-08T14:17:04.173Z,21.73
2023-04-08T14:19:31.189Z,21.63
2023-04-08T14:21:58.161Z,29.25
2023-04-08T14:24:24.918Z,24.50
2023-04-08T14:26:51.645Z,27.52
2023-04-08T14:29:18.572Z,28.23
2023-04-08T14:31:45.367Z,25.05
2023-04-08T14:34:12.036Z,23.52
2023-04-08T14:36:38.699Z,23.67
2023-04-08T14:39:05.403Z,24.67
2023-04-08T14:41:32.154Z,22.48
2023-04-08T14:43:58.989Z,29.85
2023-04-08T14:46:28.880Z,26.45
2023-04-08T14:48:56.113Z,23.15
2023-04-08T14:51:22.880Z,22.35
2023-04-08T14:53:49.681Z,24.30
2023-04-08T14:56:19.325Z,24.90
2023-04-08T14:58:46.063Z,24.23
2023-04-08T15:01:12.953Z,23.20
2023-04-08T15:03:39.794Z,30.63
2023-04-08T15:06:07.169Z,25.67
2023-04-08T15:08:35.085Z,23.40
2023-04-08T15:11:01.769Z,29.48
2023-04-08T15:13:28.480Z,26.42
2023-04-08T15:15:55.433Z,25.60
2023-04-08T15:18:22.181Z,26.10
2023-04-08T15:20:48.871Z,28.15
2023-04-08T15:23:15.561Z,25.35
2023-04-08T15:25:42.349Z,27.77
2023-04-08T15:28:09.301Z,25.13
2023-04-08T15:30:36.324Z,24.75
2023-04-08T15:33:04.182Z,26.65
2023-04-08T15:35:31.354Z,26.42
2023-04-08T15:37:58.204Z,27.63
2023-04-08T15:40:25.774Z,22.42
2023-04-08T15:42:52.943Z,24.42
2023-04-08T15:45:19.827Z,28.50
2023-04-08T15:47:46.503Z,26.88
2023-04-08T15:50:14.853Z,23.88
2023-04-08T15:52:41.934Z,23.23
2023-04-08T15:55:08.819Z,27.75
2023-04-08T15:57:36.760Z,33.35
2023-04-08T16:00:10.876Z,32.20
2023-04-08T16:02:40.820Z,25.20
2023-04-08T16:05:08.095Z,26.42
2023-04-08T16:07:34.873Z,32.47
2023-04-08T16:10:01.650Z,25.10
2023-04-08T16:12:28.816Z,27.33
2023-04-08T16:14:55.559Z,28.80
2023-04-08T16:17:22.943Z,27.00
2023-04-08T16:19:51.683Z,27.52
2023-04-08T16:22:18.922Z,29.30
2023-04-08T16:24:45.763Z,32.28
2023-04-08T16:27:12.788Z,32.00
2023-04-08T16:29:39.484Z,31.58
2023-04-08T16:32:06.670Z,33.90
2023-04-08T16:34:36.348Z,30.58
2023-04-08T16:37:03.208Z,30.92
2023-04-08T16:39:30.038Z,32.30
2023-04-08T16:41:56.872Z,31.60
2023-04-08T16:44:23.844Z,31.23
2023-04-08T16:46:50.645Z,32.15
2023-04-08T16:49:18.364Z,35.30
2023-04-08T16:51:45.253Z,33.33
2023-04-08T16:54:11.984Z,30.73
2023-04-08T16:56:44.118Z,30.98
2023-04-08T16:59:11.628Z,28.70
2023-04-08T17:01:38.538Z,34.20
2023-04-08T17:04:05.532Z,31.23
2023-04-08T17:06:34.520Z,33.05
2023-04-08T17:09:03.787Z,37.50
2023-04-08T17:11:31.041Z,38.85
2023-04-08T17:13:58.748Z,36.08
2023-04-08T17:16:25.706Z,33.35
2023-04-08T17:18:52.567Z,36.72
2023-04-08T17:21:20.178Z,35.67
2023-04-08T17:23:47.050Z,31.27
2023-04-08T17:26:13.794Z,34.58
2023-04-08T17:28:41.089Z,32.70
2023-04-08T17:31:07.804Z,29.65
2023-04-08T17:33:34.580Z,32.15
2023-04-08T17:36:01.675Z,37.05
2023-04-08T17:38:28.714Z,33.10
2023-04-08T17:40:55.553Z,32.20
2023-04-08T17:43:22.313Z,34.00
2023-04-08T17:45:50.615Z,31.30
2023-04-08T17:48:19.067Z,33.65
2023-04-08T17:50:46.529Z,33.33
2023-04-08T17:53:13.303Z,34.45
2023-04-08T17:55:47.438Z,35.35
2023-04-08T17:58:14.560Z,36.72
2023-04-08T18:00:41.605Z,32.95
2023-04-08T18:03:09.551Z,34.58
2023-04-08T18:05:36.560Z,35.08
2023-04-08T18:08:03.303Z,36.55
2023-04-08T18:10:30.326Z,36.35
2023-04-08T18:13:07.903Z,31.77
2023-04-08T18:15:38.392Z,36.53
2023-04-08T18:18:05.472Z,41.40
2023-04-08T18:20:37.861Z,38.15
2023-04-08T18:23:04.801Z,33.78
2023-04-08T18:25:32.254Z,33.10
2023-04-08T18:27:59.427Z,35.22
2023-04-08T18:30:26.416Z,33.00
2023-04-08T18:32:53.220Z,36.35
2023-04-08T18:35:20.306Z,37.20
2023-04-08T18:37:47.411Z,36.90
2023-04-08T18:40:14.127Z,31.88
2023-04-08T18:42:41.080Z,32.13
2023-04-08T18:45:08.155Z,34.50
2023-04-08T18:47:34.903Z,33.42
2023-04-08T18:50:01.683Z,31.45
2023-04-08T18:52:28.828Z,30.20
2023-04-08T18:54:55.600Z,31.92
2023-04-08T18:57:22.732Z,31.75
2023-04-08T18:59:49.440Z,33.85
2023-04-08T19:02:16.697Z,32.30
2023-04-08T19:04:43.597Z,34.17
2023-04-08T19:07:11.752Z,32.00
2023-04-08T19:09:38.484Z,31.40
2023-04-08T19:12:05.342Z,36.22
2023-04-08T19:14:32.169Z,30.58
2023-04-08T19:16:58.867Z,35.03
2023-04-08T19:19:25.565Z,35.35
2023-04-08T19:21:52.265Z,29.50
2023-04-08T19:24:20.761Z,34.28
2023-04-08T19:26:49.391Z,35.85
2023-04-08T19:29:16.190Z,35.45
2023-04-08T19:31:43.198Z,34.85
2023-04-08T19:34:10.204Z,35.90
2023-04-08T19:36:36.938Z,35.45
2023-04-08T19:39:04.474Z,36.33
2023-04-08T19:41:31.326Z,33.78
2023-04-08T19:43:58.000Z,33.20
2023-04-08T19:46:24.797Z,32.60
2023-04-08T19:48:51.606Z,34.88
2023-04-08T19:51:22.328Z,37.08
2023-04-08T19:53:51.201Z,36.05
2023-04-08T19:56:18.088Z,42.22
2023-04-08T19:58:44.771Z,46.42
2023-04-08T20:01:14.032Z,48.10
2023-04-08T20:03:49.971Z,45.42
2023-04-08T20:06:17.512Z,45.28
2023-04-08T20:08:44.907Z,49.42
2023-04-08T20:11:12.059Z,52.50
2023-04-08T20:13:39.933Z,54.88
2023-04-08T20:16:07.370Z,58.00
2023-04-08T20:18:34.806Z,61.97
2023-04-08T20:21:01.506Z,58.03
2023-04-08T20:23:28.559Z,68.05
2023-04-08T20:25:56.612Z,59.00
2023-04-08T20:28:23.654Z,70.15
2023-04-08T20:30:51.561Z,69.18
2023-04-08T20:33:19.121Z,66.80
2023-04-08T20:35:46.733Z,69.32
2023-04-08T20:38:13.586Z,75.45
2023-04-08T20:40:44.230Z,69.90
2023-04-08T20:43:11.405Z,78.18
2023-04-08T20:45:38.119Z,71.57
2023-04-08T20:48:05.706Z,69.90
2023-04-08T20:50:32.941Z,67.82
2023-04-08T20:52:59.912Z,64.40
2023-04-08T20:55:26.644Z,69.72
2023-04-08T20:57:53.389Z,66.50
2023-04-08T21:00:20.333Z,65.40
2023-04-08T21:02:47.605Z,65.65
2023-04-08T21:05:14.762Z,67.50
2023-04-08T21:07:44.400Z,65.60
2023-04-08T21:10:12.878Z,62.60
2023-04-08T21:12:39.628Z,63.20
2023-04-08T21:15:06.768Z,65.43
2023-04-08T21:17:33.520Z,56.90
2023-04-08T21:20:00.621Z,62.58
2023-04-08T21:22:27.458Z,58.08
2023-04-08T21:24:56.725Z,59.20
2023-04-08T21:27:23.523Z,59.67
2023-04-08T21:29:53.309Z,62.10
2023-04-08T21:32:20.220Z,62.45
2023-04-08T21:34:46.896Z,62.05
2023-04-08T21:37:13.651Z,61.47
2023-04-08T21:39:40.396Z,57.55
2023-04-08T21:42:07.196Z,60.63
2023-04-08T21:44:33.950Z,59.75
2023-04-08T21:47:02.015Z,61.03
2023-04-08T21:49:32.247Z,57.97
2023-04-08T21:51:58.956Z,61.25
2023-04-08T21:54:25.818Z,62.00
2023-04-08T21:56:52.513Z,60.17
2023-04-08T21:59:19.964Z,61.08
2023-04-08T22:01:46.880Z,63.22
2023-04-08T22:04:13.761Z,56.40
2023-04-08T22:06:41.087Z,59.75
2023-04-08T22:09:07.976Z,58.03
2023-04-08T22:11:34.701Z,60.88
2023-04-08T22:14:01.364Z,62.78
2023-04-08T22:16:28.087Z,59.83
2023-04-08T22:18:54.996Z,59.28
2023-04-08T22:21:21.704Z,56.90
2023-04-08T22:23:48.388Z,57.47
2023-04-08T22:26:15.947Z,57.80
2023-04-08T22:28:42.825Z,58.90
2023-04-08T22:31:11.673Z,59.03
2023-04-08T22:33:39.233Z,59.45
2023-04-08T22:36:06.414Z,55.13
2023-04-08T22:38:33.433Z,59.88
2023-04-08T22:41:00.773Z,54.15
2023-04-08T22:43:27.628Z,54.40
2023-04-08T22:45:54.422Z,53.92
2023-04-08T22:48:21.218Z,59.30
2023-04-08T22:50:47.949Z,50.63
2023-04-08T22:53:14.739Z,46.97
2023-04-08T22:55:41.442Z,55.03
2023-04-08T22:58:08.134Z,46.55
2023-04-08T23:00:34.845Z,45.53
2023-04-08T23:03:04.569Z,41.35
2023-04-08T23:05:31.585Z,46.65
2023-04-08T23:07:58.333Z,45.83
2023-04-08T23:10:25.233Z,43.63
2023-04-08T23:12:52.024Z,44.03
2023-04-08T23:15:18.837Z,51.28
2023-04-08T23:17:45.865Z,46.10
2023-04-08T23:20:12.741Z,47.53
2023-04-08T23:22:39.418Z,42.20
2023-04-08T23:25:06.699Z,43.88
2023-04-08T23:27:33.632Z,41.65
2023-04-08T23:30:06.528Z,39.83
2023-04-08T23:32:33.992Z,39.05
2023-04-08T23:35:01.490Z,35.15
2023-04-08T23:37:29.221Z,38.60
2023-04-08T23:39:56.247Z,35.42
2023-04-08T23:42:26.999Z,39.92
2023-04-08T23:44:54.664Z,36.65
2023-04-08T23:47:21.737Z,38.28
2023-04-08T23:49:48.521Z,40.15
2023-04-08T23:52:15.600Z,39.38
2023-04-08T23:54:42.325Z,36.78
2023-04-08T23:57:09.025Z,40.80
2023-04-08T23:59:35.831Z,34.30
